sensor_id;sensor_type;location;lat;lon;timestamp;P1;durP1;ratioP1;P2;durP2;ratioP2
54561;SDS011;69047;53.358;-1.486;2024-01-30T00:00:09;59.03;;;29.70;;
54561;SDS011;69047;53.358;-1.486;2024-01-30T00:02:35;57.80;;;29.00;;
54561;SDS011;69047;53.358;-1.486;2024-01-30T00:05:00;60.63;;;29.15;;
54561;SDS011;69047;53.358;-1.486;2024-01-30T00:07:26;62.25;;;29.52;;
54561;SDS011;69047;53.358;-1.486;2024-01-30T00:09:51;58.38;;;27.98;;
54561;SDS011;69047;53.358;-1.486;2024-01-30T00:12:17;57.92;;;29.48;;
54561;SDS011;69047;53.358;-1.486;2024-01-30T00:14:42;59.45;;;27.20;;
54561;SDS011;69047;53.358;-1.486;2024-01-30T00:17:10;57.03;;;27.23;;
54561;SDS011;69047;53.358;-1.486;2024-01-30T00:19:36;62.40;;;28.25;;
54561;SDS011;69047;53.358;-1.486;2024-01-30T00:22:01;53.08;;;27.15;;
54561;SDS011;69047;53.358;-1.486;2024-01-30T00:24:27;62.00;;;27.08;;
54561;SDS011;69047;53.358;-1.486;2024-01-30T00:26:52;65.32;;;28.25;;
54561;SDS011;69047;53.358;-1.486;2024-01-30T00:29:17;58.03;;;26.52;;
54561;SDS011;69047;53.358;-1.486;2024-01-30T00:31:45;50.05;;;26.80;;
54561;SDS011;69047;53.358;-1.486;2024-01-30T00:34:10;61.90;;;26.98;;
54561;SDS011;69047;53.358;-1.486;2024-01-30T00:36:37;61.28;;;25.73;;
54561;SDS011;69047;53.358;-1.486;2024-01-30T00:39:02;62.38;;;25.00;;
54561;SDS011;69047;53.358;-1.486;2024-01-30T00:41:31;52.67;;;24.25;;
54561;SDS011;69047;53.358;-1.486;2024-01-30T00:43:57;63.40;;;25.63;;
54561;SDS011;69047;53.358;-1.486;2024-01-30T00:46:22;51.53;;;23.95;;
54561;SDS011;69047;53.358;-1.486;2024-01-30T00:48:48;60.38;;;24.83;;
54561;SDS011;69047;53.358;-1.486;2024-01-30T00:51:13;55.35;;;24.30;;
54561;SDS011;69047;53.358;-1.486;2024-01-30T00:53:40;57.53;;;24.60;;
54561;SDS011;69047;53.358;-1.486;2024-01-30T00:56:07;61.85;;;26.02;;
54561;SDS011;69047;53.358;-1.486;2024-01-30T00:58:33;60.60;;;25.98;;
54561;SDS011;69047;53.358;-1.486;2024-01-30T01:00:58;59.38;;;25.10;;
54561;SDS011;69047;53.358;-1.486;2024-01-30T01:03:24;61.00;;;23.40;;
54561;SDS011;69047;53.358;-1.486;2024-01-30T01:05:49;64.07;;;23.33;;
54561;SDS011;69047;53.358;-1.486;2024-01-30T01:08:15;55.63;;;22.75;;
54561;SDS011;69047;53.358;-1.486;2024-01-30T01:10:41;51.70;;;23.75;;
54561;SDS011;69047;53.358;-1.486;2024-01-30T01:13:06;60.20;;;22.92;;
54561;SDS011;69047;53.358;-1.486;2024-01-30T01:15:32;60.00;;;22.55;;
54561;SDS011;69047;53.358;-1.486;2024-01-30T01:17:57;53.92;;;21.27;;
54561;SDS011;69047;53.358;-1.486;2024-01-30T01:20:23;66.35;;;25.48;;
54561;SDS011;69047;53.358;-1.486;2024-01-30T01:22:50;63.20;;;23.20;;
54561;SDS011;69047;53.358;-1.486;2024-01-30T01:25:18;57.67;;;23.90;;
54561;SDS011;69047;53.358;-1.486;2024-01-30T01:27:45;53.03;;;23.42;;
54561;SDS011;69047;53.358;-1.486;2024-01-30T01:30:16;53.47;;;24.08;;
54561;SDS011;69047;53.358;-1.486;2024-01-30T01:32:46;52.50;;;21.70;;
54561;SDS011;69047;53.358;-1.486;2024-01-30T01:35:24;48.20;;;22.30;;
54561;SDS011;69047;53.358;-1.486;2024-01-30T01:37:51;55.70;;;23.27;;
54561;SDS011;69047;53.358;-1.486;2024-01-30T01:40:25;55.63;;;23.10;;
54561;SDS011;69047;53.358;-1.486;2024-01-30T01:42:51;61.03;;;22.92;;
54561;SDS011;69047;53.358;-1.486;2024-01-30T01:45:23;55.40;;;23.98;;
54561;SDS011;69047;53.358;-1.486;2024-01-30T01:47:55;53.88;;;23.88;;
54561;SDS011;69047;53.358;-1.486;2024-01-30T01:50:20;53.20;;;24.42;;
54561;SDS011;69047;53.358;-1.486;2024-01-30T01:52:50;51.50;;;23.10;;
54561;SDS011;69047;53.358;-1.486;2024-01-30T01:55:20;72.13;;;24.63;;
54561;SDS011;69047;53.358;-1.486;2024-01-30T02:00:15;58.40;;;22.48;;
54561;SDS011;69047;53.358;-1.486;2024-01-30T02:02:41;47.92;;;21.33;;
54561;SDS011;69047;53.358;-1.486;2024-01-30T02:05:08;56.55;;;22.92;;
54561;SDS011;69047;53.358;-1.486;2024-01-30T02:07:34;48.90;;;22.02;;
54561;SDS011;69047;53.358;-1.486;2024-01-30T02:10:01;55.05;;;22.75;;
54561;SDS011;69047;53.358;-1.486;2024-01-30T02:12:26;49.67;;;20.77;;
54561;SDS011;69047;53.358;-1.486;2024-01-30T02:14:52;42.15;;;19.20;;
54561;SDS011;69047;53.358;-1.486;2024-01-30T02:17:18;50.97;;;22.13;;
54561;SDS011;69047;53.358;-1.486;2024-01-30T02:19:44;48.03;;;20.70;;
54561;SDS011;69047;53.358;-1.486;2024-01-30T02:22:09;50.83;;;20.98;;
54561;SDS011;69047;53.358;-1.486;2024-01-30T02:24:35;44.85;;;20.70;;
54561;SDS011;69047;53.358;-1.486;2024-01-30T02:27:01;22.70;;;10.68;;
54561;SDS011;69047;53.358;-1.486;2024-01-30T02:29:26;12.13;;;6.88;;
54561;SDS011;69047;53.358;-1.486;2024-01-30T02:31:52;5.18;;;3.70;;
54561;SDS011;69047;53.358;-1.486;2024-01-30T02:37:00;3.30;;;2.60;;
54561;SDS011;69047;53.358;-1.486;2024-01-30T02:39:25;4.32;;;2.60;;
54561;SDS011;69047;53.358;-1.486;2024-01-30T02:41:50;2.80;;;2.45;;
54561;SDS011;69047;53.358;-1.486;2024-01-30T02:44:16;3.58;;;2.47;;
54561;SDS011;69047;53.358;-1.486;2024-01-30T02:46:41;3.53;;;2.55;;
54561;SDS011;69047;53.358;-1.486;2024-01-30T02:49:07;3.72;;;2.70;;
54561;SDS011;69047;53.358;-1.486;2024-01-30T02:51:32;3.53;;;2.90;;
54561;SDS011;69047;53.358;-1.486;2024-01-30T02:53:58;3.58;;;2.97;;
54561;SDS011;69047;53.358;-1.486;2024-01-30T02:56:23;4.72;;;3.22;;
54561;SDS011;69047;53.358;-1.486;2024-01-30T02:58:48;4.55;;;3.38;;
54561;SDS011;69047;53.358;-1.486;2024-01-30T03:01:14;4.53;;;3.20;;
54561;SDS011;69047;53.358;-1.486;2024-01-30T03:03:39;3.95;;;2.95;;
54561;SDS011;69047;53.358;-1.486;2024-01-30T03:06:05;3.92;;;3.10;;
54561;SDS011;69047;53.358;-1.486;2024-01-30T03:08:32;3.35;;;3.05;;
54561;SDS011;69047;53.358;-1.486;2024-01-30T03:10:57;2.03;;;1.83;;
54561;SDS011;69047;53.358;-1.486;2024-01-30T03:13:23;3.42;;;1.85;;
54561;SDS011;69047;53.358;-1.486;2024-01-30T03:15:50;2.83;;;1.95;;
54561;SDS011;69047;53.358;-1.486;2024-01-30T03:18:15;1.38;;;1.27;;
54561;SDS011;69047;53.358;-1.486;2024-01-30T03:20:40;1.50;;;1.25;;
54561;SDS011;69047;53.358;-1.486;2024-01-30T03:23:06;1.23;;;1.13;;
54561;SDS011;69047;53.358;-1.486;2024-01-30T03:25:31;2.85;;;0.85;;
54561;SDS011;69047;53.358;-1.486;2024-01-30T03:27:57;1.33;;;1.00;;
54561;SDS011;69047;53.358;-1.486;2024-01-30T03:30:22;1.08;;;0.60;;
54561;SDS011;69047;53.358;-1.486;2024-01-30T03:32:48;1.55;;;0.80;;
54561;SDS011;69047;53.358;-1.486;2024-01-30T03:35:13;0.70;;;0.60;;
54561;SDS011;69047;53.358;-1.486;2024-01-30T03:37:39;2.88;;;0.85;;
54561;SDS011;69047;53.358;-1.486;2024-01-30T03:40:04;2.35;;;0.80;;
54561;SDS011;69047;53.358;-1.486;2024-01-30T03:42:30;0.88;;;0.60;;
54561;SDS011;69047;53.358;-1.486;2024-01-30T03:44:56;0.45;;;0.32;;
54561;SDS011;69047;53.358;-1.486;2024-01-30T03:47:21;0.30;;;0.30;;
54561;SDS011;69047;53.358;-1.486;2024-01-30T03:49:47;0.55;;;0.30;;
54561;SDS011;69047;53.358;-1.486;2024-01-30T03:52:12;0.82;;;0.30;;
54561;SDS011;69047;53.358;-1.486;2024-01-30T03:54:37;2.28;;;0.10;;
54561;SDS011;69047;53.358;-1.486;2024-01-30T03:57:03;1.75;;;0.20;;
54561;SDS011;69047;53.358;-1.486;2024-01-30T03:59:29;0.20;;;0.20;;
54561;SDS011;69047;53.358;-1.486;2024-01-30T04:01:54;0.20;;;0.20;;
54561;SDS011;69047;53.358;-1.486;2024-01-30T04:04:20;0.20;;;0.20;;
54561;SDS011;69047;53.358;-1.486;2024-01-30T04:06:45;0.30;;;0.30;;
54561;SDS011;69047;53.358;-1.486;2024-01-30T04:09:11;1.67;;;0.25;;
54561;SDS011;69047;53.358;-1.486;2024-01-30T04:11:38;0.35;;;0.20;;
54561;SDS011;69047;53.358;-1.486;2024-01-30T04:14:03;0.20;;;0.20;;
54561;SDS011;69047;53.358;-1.486;2024-01-30T04:16:29;2.03;;;0.50;;
54561;SDS011;69047;53.358;-1.486;2024-01-30T04:18:55;0.45;;;0.45;;
54561;SDS011;69047;53.358;-1.486;2024-01-30T04:21:21;0.15;;;0.15;;
54561;SDS011;69047;53.358;-1.486;2024-01-30T04:23:47;0.40;;;0.30;;
54561;SDS011;69047;53.358;-1.486;2024-01-30T04:26:13;0.30;;;0.30;;
54561;SDS011;69047;53.358;-1.486;2024-01-30T04:28:41;0.30;;;0.30;;
54561;SDS011;69047;53.358;-1.486;2024-01-30T04:31:07;0.82;;;0.50;;
54561;SDS011;69047;53.358;-1.486;2024-01-30T04:33:33;0.60;;;0.47;;
54561;SDS011;69047;53.358;-1.486;2024-01-30T04:35:59;1.33;;;0.40;;
54561;SDS011;69047;53.358;-1.486;2024-01-30T04:38:30;0.85;;;0.55;;
54561;SDS011;69047;53.358;-1.486;2024-01-30T04:40:55;1.17;;;0.50;;
54561;SDS011;69047;53.358;-1.486;2024-01-30T04:43:21;1.40;;;0.55;;
54561;SDS011;69047;53.358;-1.486;2024-01-30T04:45:46;1.90;;;0.75;;
54561;SDS011;69047;53.358;-1.486;2024-01-30T04:48:12;1.83;;;0.90;;
54561;SDS011;69047;53.358;-1.486;2024-01-30T04:50:38;2.35;;;1.20;;
54561;SDS011;69047;53.358;-1.486;2024-01-30T04:53:04;3.00;;;0.90;;
54561;SDS011;69047;53.358;-1.486;2024-01-30T04:55:29;1.17;;;0.90;;
54561;SDS011;69047;53.358;-1.486;2024-01-30T04:57:55;1.75;;;1.42;;
54561;SDS011;69047;53.358;-1.486;2024-01-30T05:00:20;1.38;;;0.80;;
54561;SDS011;69047;53.358;-1.486;2024-01-30T05:02:46;2.10;;;1.27;;
54561;SDS011;69047;53.358;-1.486;2024-01-30T05:05:11;1.05;;;0.85;;
54561;SDS011;69047;53.358;-1.486;2024-01-30T05:07:41;2.40;;;0.70;;
54561;SDS011;69047;53.358;-1.486;2024-01-30T05:10:06;1.88;;;0.90;;
54561;SDS011;69047;53.358;-1.486;2024-01-30T05:12:33;3.92;;;1.20;;
54561;SDS011;69047;53.358;-1.486;2024-01-30T05:14:58;3.22;;;1.10;;
54561;SDS011;69047;53.358;-1.486;2024-01-30T05:17:24;0.70;;;0.60;;
54561;SDS011;69047;53.358;-1.486;2024-01-30T05:19:49;1.17;;;0.88;;
54561;SDS011;69047;53.358;-1.486;2024-01-30T05:22:15;1.10;;;0.98;;
54561;SDS011;69047;53.358;-1.486;2024-01-30T05:24:41;1.55;;;0.95;;
54561;SDS011;69047;53.358;-1.486;2024-01-30T05:27:07;4.32;;;1.20;;
54561;SDS011;69047;53.358;-1.486;2024-01-30T05:29:34;3.17;;;0.95;;
54561;SDS011;69047;53.358;-1.486;2024-01-30T05:31:59;1.30;;;0.90;;
54561;SDS011;69047;53.358;-1.486;2024-01-30T05:34:26;1.83;;;0.90;;
54561;SDS011;69047;53.358;-1.486;2024-01-30T05:36:54;1.38;;;1.20;;
54561;SDS011;69047;53.358;-1.486;2024-01-30T05:39:20;2.25;;;1.10;;
54561;SDS011;69047;53.358;-1.486;2024-01-30T05:41:45;1.83;;;1.40;;
54561;SDS011;69047;53.358;-1.486;2024-01-30T05:44:11;3.67;;;1.45;;
54561;SDS011;69047;53.358;-1.486;2024-01-30T05:46:36;1.45;;;1.00;;
54561;SDS011;69047;53.358;-1.486;2024-01-30T05:49:01;1.25;;;0.93;;
54561;SDS011;69047;53.358;-1.486;2024-01-30T05:51:27;1.10;;;0.82;;
54561;SDS011;69047;53.358;-1.486;2024-01-30T05:53:53;1.58;;;1.08;;
54561;SDS011;69047;53.358;-1.486;2024-01-30T05:56:18;1.58;;;0.93;;
54561;SDS011;69047;53.358;-1.486;2024-01-30T05:58:44;1.20;;;0.90;;
54561;SDS011;69047;53.358;-1.486;2024-01-30T06:01:09;1.10;;;0.70;;
54561;SDS011;69047;53.358;-1.486;2024-01-30T06:03:35;1.42;;;0.80;;
54561;SDS011;69047;53.358;-1.486;2024-01-30T06:06:00;2.42;;;0.75;;
54561;SDS011;69047;53.358;-1.486;2024-01-30T06:08:27;1.58;;;0.80;;
54561;SDS011;69047;53.358;-1.486;2024-01-30T06:10:54;1.70;;;1.17;;
54561;SDS011;69047;53.358;-1.486;2024-01-30T06:13:20;2.60;;;0.98;;
54561;SDS011;69047;53.358;-1.486;2024-01-30T06:15:45;0.90;;;0.70;;
54561;SDS011;69047;53.358;-1.486;2024-01-30T06:18:11;0.73;;;0.52;;
54561;SDS011;69047;53.358;-1.486;2024-01-30T06:20:36;0.77;;;0.60;;
54561;SDS011;69047;53.358;-1.486;2024-01-30T06:23:01;1.50;;;0.50;;
54561;SDS011;69047;53.358;-1.486;2024-01-30T06:25:27;1.00;;;0.50;;
54561;SDS011;69047;53.358;-1.486;2024-01-30T06:27:52;0.50;;;0.40;;
54561;SDS011;69047;53.358;-1.486;2024-01-30T06:30:18;0.40;;;0.40;;
54561;SDS011;69047;53.358;-1.486;2024-01-30T06:32:43;0.50;;;0.30;;
54561;SDS011;69047;53.358;-1.486;2024-01-30T06:35:09;1.67;;;0.47;;
54561;SDS011;69047;53.358;-1.486;2024-01-30T06:37:35;0.90;;;0.40;;
54561;SDS011;69047;53.358;-1.486;2024-01-30T06:40:01;0.30;;;0.30;;
54561;SDS011;69047;53.358;-1.486;2024-01-30T06:42:27;0.55;;;0.32;;
54561;SDS011;69047;53.358;-1.486;2024-01-30T06:44:52;2.38;;;0.60;;
54561;SDS011;69047;53.358;-1.486;2024-01-30T06:47:18;1.33;;;0.38;;
54561;SDS011;69047;53.358;-1.486;2024-01-30T06:49:44;0.30;;;0.28;;
54561;SDS011;69047;53.358;-1.486;2024-01-30T06:52:10;0.30;;;0.30;;
54561;SDS011;69047;53.358;-1.486;2024-01-30T06:54:36;0.30;;;0.30;;
54561;SDS011;69047;53.358;-1.486;2024-01-30T06:57:01;0.45;;;0.40;;
54561;SDS011;69047;53.358;-1.486;2024-01-30T06:59:27;0.40;;;0.30;;
54561;SDS011;69047;53.358;-1.486;2024-01-30T07:01:52;0.30;;;0.30;;
54561;SDS011;69047;53.358;-1.486;2024-01-30T07:04:18;0.30;;;0.28;;
54561;SDS011;69047;53.358;-1.486;2024-01-30T07:06:43;1.65;;;0.20;;
54561;SDS011;69047;53.358;-1.486;2024-01-30T07:09:09;0.25;;;0.22;;
54561;SDS011;69047;53.358;-1.486;2024-01-30T07:11:34;0.20;;;0.10;;
54561;SDS011;69047;53.358;-1.486;2024-01-30T07:14:00;0.32;;;0.30;;
54561;SDS011;69047;53.358;-1.486;2024-01-30T07:16:25;0.98;;;0.30;;
54561;SDS011;69047;53.358;-1.486;2024-01-30T07:18:51;0.40;;;0.28;;
54561;SDS011;69047;53.358;-1.486;2024-01-30T07:21:16;1.48;;;0.43;;
54561;SDS011;69047;53.358;-1.486;2024-01-30T07:23:42;0.30;;;0.30;;
54561;SDS011;69047;53.358;-1.486;2024-01-30T07:26:08;3.30;;;0.40;;
54561;SDS011;69047;53.358;-1.486;2024-01-30T07:28:36;0.32;;;0.32;;
54561;SDS011;69047;53.358;-1.486;2024-01-30T07:31:09;2.38;;;0.40;;
54561;SDS011;69047;53.358;-1.486;2024-01-30T07:33:34;0.35;;;0.30;;
54561;SDS011;69047;53.358;-1.486;2024-01-30T07:36:00;0.47;;;0.40;;
54561;SDS011;69047;53.358;-1.486;2024-01-30T07:38:26;0.30;;;0.30;;
54561;SDS011;69047;53.358;-1.486;2024-01-30T07:40:51;0.47;;;0.47;;
54561;SDS011;69047;53.358;-1.486;2024-01-30T07:43:17;1.73;;;0.30;;
54561;SDS011;69047;53.358;-1.486;2024-01-30T07:45:42;0.32;;;0.32;;
54561;SDS011;69047;53.358;-1.486;2024-01-30T07:48:08;0.40;;;0.40;;
54561;SDS011;69047;53.358;-1.486;2024-01-30T07:50:34;1.17;;;0.50;;
54561;SDS011;69047;53.358;-1.486;2024-01-30T07:53:00;4.72;;;0.68;;
54561;SDS011;69047;53.358;-1.486;2024-01-30T07:55:26;0.65;;;0.52;;
54561;SDS011;69047;53.358;-1.486;2024-01-30T07:57:53;1.80;;;0.70;;
54561;SDS011;69047;53.358;-1.486;2024-01-30T08:00:21;0.60;;;0.60;;
54561;SDS011;69047;53.358;-1.486;2024-01-30T08:02:47;0.55;;;0.55;;
54561;SDS011;69047;53.358;-1.486;2024-01-30T08:05:13;1.85;;;1.15;;
54561;SDS011;69047;53.358;-1.486;2024-01-30T08:07:40;0.50;;;0.40;;
54561;SDS011;69047;53.358;-1.486;2024-01-30T08:10:07;0.60;;;0.50;;
54561;SDS011;69047;53.358;-1.486;2024-01-30T08:12:33;0.60;;;0.50;;
54561;SDS011;69047;53.358;-1.486;2024-01-30T08:14:58;0.32;;;0.32;;
54561;SDS011;69047;53.358;-1.486;2024-01-30T08:17:24;1.40;;;0.40;;
54561;SDS011;69047;53.358;-1.486;2024-01-30T08:19:49;1.35;;;0.80;;
54561;SDS011;69047;53.358;-1.486;2024-01-30T08:22:15;0.30;;;0.30;;
54561;SDS011;69047;53.358;-1.486;2024-01-30T08:24:41;0.80;;;0.30;;
54561;SDS011;69047;53.358;-1.486;2024-01-30T08:27:06;0.63;;;0.40;;
54561;SDS011;69047;53.358;-1.486;2024-01-30T08:29:34;0.65;;;0.30;;
54561;SDS011;69047;53.358;-1.486;2024-01-30T08:32:00;0.50;;;0.43;;
54561;SDS011;69047;53.358;-1.486;2024-01-30T08:34:28;0.93;;;0.40;;
54561;SDS011;69047;53.358;-1.486;2024-01-30T08:36:55;0.57;;;0.47;;
54561;SDS011;69047;53.358;-1.486;2024-01-30T08:39:20;0.75;;;0.68;;
54561;SDS011;69047;53.358;-1.486;2024-01-30T08:41:46;0.65;;;0.55;;
54561;SDS011;69047;53.358;-1.486;2024-01-30T08:44:11;0.65;;;0.40;;
54561;SDS011;69047;53.358;-1.486;2024-01-30T08:46:37;1.27;;;0.70;;
54561;SDS011;69047;53.358;-1.486;2024-01-30T08:49:02;0.80;;;0.60;;
54561;SDS011;69047;53.358;-1.486;2024-01-30T08:51:29;2.33;;;0.52;;
54561;SDS011;69047;53.358;-1.486;2024-01-30T08:53:55;0.57;;;0.50;;
54561;SDS011;69047;53.358;-1.486;2024-01-30T08:56:21;3.10;;;0.70;;
54561;SDS011;69047;53.358;-1.486;2024-01-30T08:58:46;2.67;;;1.38;;
54561;SDS011;69047;53.358;-1.486;2024-01-30T09:01:11;1.55;;;0.50;;
54561;SDS011;69047;53.358;-1.486;2024-01-30T09:03:37;2.35;;;0.50;;
54561;SDS011;69047;53.358;-1.486;2024-01-30T09:06:10;0.60;;;0.30;;
54561;SDS011;69047;53.358;-1.486;2024-01-30T09:08:36;0.20;;;0.20;;
54561;SDS011;69047;53.358;-1.486;2024-01-30T09:11:02;1.02;;;0.30;;
54561;SDS011;69047;53.358;-1.486;2024-01-30T09:13:33;2.95;;;0.40;;
54561;SDS011;69047;53.358;-1.486;2024-01-30T09:15:59;1.48;;;0.35;;
54561;SDS011;69047;53.358;-1.486;2024-01-30T09:18:24;0.40;;;0.30;;
54561;SDS011;69047;53.358;-1.486;2024-01-30T09:20:49;0.40;;;0.40;;
54561;SDS011;69047;53.358;-1.486;2024-01-30T09:23:15;3.50;;;0.43;;
54561;SDS011;69047;53.358;-1.486;2024-01-30T09:25:42;0.63;;;0.15;;
54561;SDS011;69047;53.358;-1.486;2024-01-30T09:28:09;0.98;;;0.20;;
54561;SDS011;69047;53.358;-1.486;2024-01-30T09:30:35;0.22;;;0.22;;
54561;SDS011;69047;53.358;-1.486;2024-01-30T09:33:00;0.32;;;0.20;;
54561;SDS011;69047;53.358;-1.486;2024-01-30T09:35:25;0.52;;;0.20;;
54561;SDS011;69047;53.358;-1.486;2024-01-30T09:37:51;0.98;;;0.20;;
54561;SDS011;69047;53.358;-1.486;2024-01-30T09:40:17;0.30;;;0.30;;
54561;SDS011;69047;53.358;-1.486;2024-01-30T09:42:44;0.57;;;0.40;;
54561;SDS011;69047;53.358;-1.486;2024-01-30T09:45:23;0.63;;;0.32;;
54561;SDS011;69047;53.358;-1.486;2024-01-30T09:47:52;0.60;;;0.40;;
54561;SDS011;69047;53.358;-1.486;2024-01-30T09:50:18;2.15;;;0.50;;
54561;SDS011;69047;53.358;-1.486;2024-01-30T09:52:45;13.80;;;1.48;;
54561;SDS011;69047;53.358;-1.486;2024-01-30T09:55:11;0.30;;;0.30;;
54561;SDS011;69047;53.358;-1.486;2024-01-30T09:57:37;1.42;;;0.38;;
54561;SDS011;69047;53.358;-1.486;2024-01-30T10:00:03;1.95;;;0.40;;
54561;SDS011;69047;53.358;-1.486;2024-01-30T10:02:32;1.55;;;0.22;;
54561;SDS011;69047;53.358;-1.486;2024-01-30T10:04:58;1.95;;;0.40;;
54561;SDS011;69047;53.358;-1.486;2024-01-30T10:07:25;0.20;;;0.10;;
54561;SDS011;69047;53.358;-1.486;2024-01-30T10:09:50;0.60;;;0.60;;
54561;SDS011;69047;53.358;-1.486;2024-01-30T10:12:16;0.32;;;0.30;;
54561;SDS011;69047;53.358;-1.486;2024-01-30T10:14:42;0.80;;;0.47;;
54561;SDS011;69047;53.358;-1.486;2024-01-30T10:17:08;0.95;;;0.55;;
54561;SDS011;69047;53.358;-1.486;2024-01-30T10:19:38;1.35;;;0.30;;
54561;SDS011;69047;53.358;-1.486;2024-01-30T10:22:04;0.55;;;0.43;;
54561;SDS011;69047;53.358;-1.486;2024-01-30T10:24:30;0.50;;;0.20;;
54561;SDS011;69047;53.358;-1.486;2024-01-30T10:26:56;0.10;;;0.10;;
54561;SDS011;69047;53.358;-1.486;2024-01-30T10:29:22;0.20;;;0.20;;
54561;SDS011;69047;53.358;-1.486;2024-01-30T10:32:00;0.28;;;0.28;;
54561;SDS011;69047;53.358;-1.486;2024-01-30T10:34:28;0.32;;;0.22;;
54561;SDS011;69047;53.358;-1.486;2024-01-30T10:37:16;1.10;;;0.50;;
54561;SDS011;69047;53.358;-1.486;2024-01-30T10:39:42;0.82;;;0.40;;
54561;SDS011;69047;53.358;-1.486;2024-01-30T10:42:14;4.55;;;0.50;;
54561;SDS011;69047;53.358;-1.486;2024-01-30T10:44:55;2.78;;;0.60;;
54561;SDS011;69047;53.358;-1.486;2024-01-30T10:47:29;0.35;;;0.30;;
54561;SDS011;69047;53.358;-1.486;2024-01-30T10:49:55;0.93;;;0.40;;
54561;SDS011;69047;53.358;-1.486;2024-01-30T10:52:25;1.15;;;0.52;;
54561;SDS011;69047;53.358;-1.486;2024-01-30T10:54:51;0.35;;;0.30;;
54561;SDS011;69047;53.358;-1.486;2024-01-30T10:57:17;0.43;;;0.32;;
54561;SDS011;69047;53.358;-1.486;2024-01-30T10:59:43;0.40;;;0.40;;
54561;SDS011;69047;53.358;-1.486;2024-01-30T11:02:10;0.65;;;0.52;;
54561;SDS011;69047;53.358;-1.486;2024-01-30T11:04:42;1.75;;;0.60;;
54561;SDS011;69047;53.358;-1.486;2024-01-30T11:09:49;0.50;;;0.40;;
54561;SDS011;69047;53.358;-1.486;2024-01-30T11:12:16;0.73;;;0.70;;
54561;SDS011;69047;53.358;-1.486;2024-01-30T11:14:41;0.47;;;0.40;;
54561;SDS011;69047;53.358;-1.486;2024-01-30T11:17:08;1.48;;;0.60;;
54561;SDS011;69047;53.358;-1.486;2024-01-30T11:19:35;1.00;;;0.70;;
54561;SDS011;69047;53.358;-1.486;2024-01-30T11:22:00;1.20;;;0.63;;
54561;SDS011;69047;53.358;-1.486;2024-01-30T11:24:27;1.30;;;0.80;;
54561;SDS011;69047;53.358;-1.486;2024-01-30T11:26:56;0.50;;;0.47;;
54561;SDS011;69047;53.358;-1.486;2024-01-30T11:29:29;0.68;;;0.55;;
54561;SDS011;69047;53.358;-1.486;2024-01-30T11:31:55;1.02;;;0.50;;
54561;SDS011;69047;53.358;-1.486;2024-01-30T11:34:23;0.93;;;0.40;;
54561;SDS011;69047;53.358;-1.486;2024-01-30T11:36:59;0.47;;;0.47;;
54561;SDS011;69047;53.358;-1.486;2024-01-30T11:39:34;0.40;;;0.40;;
54561;SDS011;69047;53.358;-1.486;2024-01-30T11:42:01;0.40;;;0.40;;
54561;SDS011;69047;53.358;-1.486;2024-01-30T11:44:29;1.25;;;0.75;;
54561;SDS011;69047;53.358;-1.486;2024-01-30T11:46:55;1.02;;;0.57;;
54561;SDS011;69047;53.358;-1.486;2024-01-30T11:49:21;0.75;;;0.43;;
54561;SDS011;69047;53.358;-1.486;2024-01-30T11:51:48;0.43;;;0.38;;
54561;SDS011;69047;53.358;-1.486;2024-01-30T11:54:14;0.90;;;0.20;;
54561;SDS011;69047;53.358;-1.486;2024-01-30T11:56:53;1.48;;;0.30;;
54561;SDS011;69047;53.358;-1.486;2024-01-30T11:59:18;0.20;;;0.20;;
54561;SDS011;69047;53.358;-1.486;2024-01-30T12:01:44;0.73;;;0.30;;
54561;SDS011;69047;53.358;-1.486;2024-01-30T12:04:09;0.93;;;0.60;;
54561;SDS011;69047;53.358;-1.486;2024-01-30T12:06:35;0.93;;;0.45;;
54561;SDS011;69047;53.358;-1.486;2024-01-30T12:09:01;0.77;;;0.38;;
54561;SDS011;69047;53.358;-1.486;2024-01-30T12:11:33;0.60;;;0.30;;
54561;SDS011;69047;53.358;-1.486;2024-01-30T12:14:12;0.22;;;0.22;;
54561;SDS011;69047;53.358;-1.486;2024-01-30T12:16:40;0.75;;;0.55;;
54561;SDS011;69047;53.358;-1.486;2024-01-30T12:19:08;0.35;;;0.32;;
54561;SDS011;69047;53.358;-1.486;2024-01-30T12:21:34;0.98;;;0.30;;
54561;SDS011;69047;53.358;-1.486;2024-01-30T12:24:00;0.52;;;0.30;;
54561;SDS011;69047;53.358;-1.486;2024-01-30T12:26:26;0.70;;;0.50;;
54561;SDS011;69047;53.358;-1.486;2024-01-30T12:28:54;0.82;;;0.45;;
54561;SDS011;69047;53.358;-1.486;2024-01-30T12:31:31;1.50;;;0.65;;
54561;SDS011;69047;53.358;-1.486;2024-01-30T12:33:59;0.88;;;0.40;;
54561;SDS011;69047;53.358;-1.486;2024-01-30T12:36:25;1.42;;;0.60;;
54561;SDS011;69047;53.358;-1.486;2024-01-30T12:38:51;3.35;;;0.60;;
54561;SDS011;69047;53.358;-1.486;2024-01-30T12:41:16;5.80;;;0.68;;
54561;SDS011;69047;53.358;-1.486;2024-01-30T12:43:42;0.82;;;0.63;;
54561;SDS011;69047;53.358;-1.486;2024-01-30T12:46:09;0.63;;;0.60;;
54561;SDS011;69047;53.358;-1.486;2024-01-30T12:48:34;0.75;;;0.57;;
54561;SDS011;69047;53.358;-1.486;2024-01-30T12:51:00;0.85;;;0.50;;
54561;SDS011;69047;53.358;-1.486;2024-01-30T12:53:25;0.57;;;0.47;;
54561;SDS011;69047;53.358;-1.486;2024-01-30T12:55:51;1.88;;;0.30;;
54561;SDS011;69047;53.358;-1.486;2024-01-30T12:58:16;0.35;;;0.30;;
54561;SDS011;69047;53.358;-1.486;2024-01-30T13:00:42;0.82;;;0.45;;
54561;SDS011;69047;53.358;-1.486;2024-01-30T13:03:08;1.23;;;0.55;;
54561;SDS011;69047;53.358;-1.486;2024-01-30T13:05:35;1.15;;;0.30;;
54561;SDS011;69047;53.358;-1.486;2024-01-30T13:08:00;0.40;;;0.40;;
54561;SDS011;69047;53.358;-1.486;2024-01-30T13:10:26;0.50;;;0.40;;
54561;SDS011;69047;53.358;-1.486;2024-01-30T13:12:51;0.77;;;0.30;;
54561;SDS011;69047;53.358;-1.486;2024-01-30T13:15:18;0.77;;;0.55;;
54561;SDS011;69047;53.358;-1.486;2024-01-30T13:18:00;1.42;;;0.43;;
54561;SDS011;69047;53.358;-1.486;2024-01-30T13:20:25;0.73;;;0.50;;
54561;SDS011;69047;53.358;-1.486;2024-01-30T13:22:51;0.20;;;0.20;;
54561;SDS011;69047;53.358;-1.486;2024-01-30T13:25:16;0.65;;;0.40;;
54561;SDS011;69047;53.358;-1.486;2024-01-30T13:27:42;0.47;;;0.40;;
54561;SDS011;69047;53.358;-1.486;2024-01-30T13:30:08;0.45;;;0.30;;
54561;SDS011;69047;53.358;-1.486;2024-01-30T13:32:34;0.30;;;0.10;;
54561;SDS011;69047;53.358;-1.486;2024-01-30T13:35:00;0.65;;;0.40;;
54561;SDS011;69047;53.358;-1.486;2024-01-30T13:37:25;0.50;;;0.40;;
54561;SDS011;69047;53.358;-1.486;2024-01-30T13:39:51;0.60;;;0.30;;
54561;SDS011;69047;53.358;-1.486;2024-01-30T13:42:16;1.27;;;0.40;;
54561;SDS011;69047;53.358;-1.486;2024-01-30T13:44:42;0.65;;;0.32;;
54561;SDS011;69047;53.358;-1.486;2024-01-30T13:47:08;1.05;;;0.30;;
54561;SDS011;69047;53.358;-1.486;2024-01-30T13:49:34;0.60;;;0.35;;
54561;SDS011;69047;53.358;-1.486;2024-01-30T13:52:00;0.63;;;0.30;;
54561;SDS011;69047;53.358;-1.486;2024-01-30T13:57:15;1.05;;;0.47;;
54561;SDS011;69047;53.358;-1.486;2024-01-30T13:59:40;1.08;;;0.50;;
54561;SDS011;69047;53.358;-1.486;2024-01-30T14:02:06;0.38;;;0.38;;
54561;SDS011;69047;53.358;-1.486;2024-01-30T14:04:33;0.30;;;0.22;;
54561;SDS011;69047;53.358;-1.486;2024-01-30T14:06:58;0.32;;;0.32;;
54561;SDS011;69047;53.358;-1.486;2024-01-30T14:09:24;0.40;;;0.30;;
54561;SDS011;69047;53.358;-1.486;2024-01-30T14:11:50;0.20;;;0.20;;
54561;SDS011;69047;53.358;-1.486;2024-01-30T14:14:25;0.70;;;0.47;;
54561;SDS011;69047;53.358;-1.486;2024-01-30T14:16:53;1.52;;;0.77;;
54561;SDS011;69047;53.358;-1.486;2024-01-30T14:19:19;3.40;;;0.73;;
54561;SDS011;69047;53.358;-1.486;2024-01-30T14:21:44;1.42;;;0.50;;
54561;SDS011;69047;53.358;-1.486;2024-01-30T14:24:09;2.22;;;0.50;;
54561;SDS011;69047;53.358;-1.486;2024-01-30T14:26:35;0.80;;;0.68;;
54561;SDS011;69047;53.358;-1.486;2024-01-30T14:29:01;6.68;;;0.70;;
54561;SDS011;69047;53.358;-1.486;2024-01-30T14:31:27;3.17;;;0.30;;
54561;SDS011;69047;53.358;-1.486;2024-01-30T14:33:52;1.65;;;0.40;;
54561;SDS011;69047;53.358;-1.486;2024-01-30T14:36:18;1.05;;;0.35;;